• Join FlightAware (Why Join?)
  • Login
  • US Flag 
10:24AM EDT


 

Airport Tracker/Info


-or-


 

Live Flight TrackerFlight Track Log ✈ AWE233 ✈ 08-Jul-2013 ✈ KPHX - KDTW

Flight Track Log - Related Links

Times and Time Zones

All times are in EDT time to prevent confusion due to time zone crossing. See the AWE233 flight status page for this flight to view local times or setup timezone preferences in your user account.

Time Position Orientation Groundspeed Altitude Reporting Facility
EDT Latitude Longitude Course Direction KTS MPH feet Rate Location/Type
02:46AM 33.4500 -111.9833 90° East 172 198 1,900  Level Phoenix TRACON
02:47AM 33.4500 -111.9167 90° East 193 222 3,000 1,260 Climbing Phoenix TRACON
02:48AM 33.4500 -111.8500 90° East 255 293 4,500 1,800 Climbing Phoenix TRACON
02:49AM 33.5167 -111.7833 40° Northeast 288 331 6,700 2,400 Climbing Phoenix TRACON
02:50AM 33.5667 -111.7167 48° Northeast 297 342 9,400 2,100 Climbing Phoenix TRACON
02:51AM 33.6500 -111.6333 40° Northeast 333 383 11,200 1,500 Climbing Phoenix TRACON
02:52AM 33.7031 -111.5733 43° Northeast 354 407 12,500 1,680 Climbing Albuquerque Center
02:53AM 33.7625 -111.4772 53° Northeast 369 425 14,500 1,800 Climbing Albuquerque Center
02:54AM 33.8103 -111.3625 63° Northeast 390 449 16,100 1,560 Climbing Albuquerque Center
02:55AM 33.8592 -111.2458 63° Northeast 394 453 17,700 2,100 Climbing Albuquerque Center
02:56AM 33.9081 -111.1275 64° Northeast 394 453 20,400 1,980 Climbing Albuquerque Center
02:57AM 33.9581 -111.0094 63° Northeast 398 458 21,700 1,200 Climbing Albuquerque Center
02:58AM 34.0083 -110.8867 64° Northeast 407 468 22,900 1,200 Climbing Albuquerque Center
02:59AM 34.0600 -110.7622 63° Northeast 414 476 24,200 1,140 Climbing Albuquerque Center
03:00AM 34.1225 -110.6072 64° Northeast 426 490 25,300 840 Climbing Albuquerque Center
03:01AM 34.1781 -110.4733 63° Northeast 441 507 25,900 840 Climbing Albuquerque Center
03:02AM 34.2333 -110.3378 64° Northeast 459 528 27,000 960 Climbing Albuquerque Center
03:03AM 34.2875 -110.2039 64° Northeast 463 533 27,900 900 Climbing Albuquerque Center
03:04AM 34.3522 -110.0444 64° Northeast 471 542 28,900 840 Climbing Albuquerque Center
03:05AM 34.4081 -109.9064 64° Northeast 475 547 29,600 720 Climbing Albuquerque Center
03:06AM 34.4628 -109.7656 65° Northeast 480 552 30,400 960 Climbing Albuquerque Center
03:07AM 34.5283 -109.6031 64° Northeast 481 554 31,600 960 Climbing Albuquerque Center
03:08AM 34.5831 -109.4639 64° Northeast 479 551 32,400 780 Climbing Albuquerque Center
03:09AM 34.6378 -109.3242 65° Northeast 479 551 33,200 840 Climbing Albuquerque Center
03:10AM 34.6933 -109.1847 64° Northeast 479 551 34,200 840 Climbing Albuquerque Center
03:11AM 34.7550 -109.0253 65° Northeast 472 543 35,000 360 Climbing Albuquerque Center
03:12AM 34.8106 -108.8856 64° Northeast 476 548 35,000  Level Albuquerque Center
03:13AM 34.8642 -108.7456 65° Northeast 478 550 35,000  Level Albuquerque Center
03:15AM 34.9406 -108.5245 67° East  Level FlightAware Approximate
03:16AM 35.0347 -108.3044 65° Northeast 475 547 35,000  Level Albuquerque Center
03:17AM 35.0961 -108.1417 65° Northeast 474 545 35,000  Level Albuquerque Center
03:18AM 35.1497 -108.0028 65° Northeast 474 545 35,000  Level Albuquerque Center
03:19AM 35.2019 -107.8631 65° Northeast 473 544 35,000  Level Albuquerque Center
03:20AM 35.2633 -107.7019 65° Northeast 471 542 35,000  Level Albuquerque Center
03:21AM 35.2828 -107.5519 81° East 465 535 35,000  Level Albuquerque Center
03:22AM 35.2835 -107.5594 65° Northeast  Level FlightAware Approximate
03:22AM 35.2928 -107.4097 85° East 470 541 35,000  Level Albuquerque Center
03:23AM 35.3031 -107.2514 85° East 466 536 35,000  Level Albuquerque Center
03:24AM 35.3206 -107.0722 83° East 467 537 35,000  Level Albuquerque Center
03:25AM 35.3386 -106.9206 82° East 470 541 35,000  Level Albuquerque Center
03:26AM 35.3628 -106.7744 78° East 462 532 35,000  Level Albuquerque Center
03:27AM 35.4122 -106.6178 69° East 483 556 35,000  Level Albuquerque Center
03:28AM 35.4625 -106.4692 67° East 473 544 35,000  Level Albuquerque Center
03:29AM 35.5178 -106.3231 65° Northeast 472 543 35,000  Level Albuquerque Center
03:30AM 35.5731 -106.1750 65° Northeast 475 547 35,000  Level Albuquerque Center
03:31AM 35.6294 -106.0294 64° Northeast 473 544 35,000  Level Albuquerque Center
03:32AM 35.7075 -105.8983 54° Northeast 472 543 35,000  Level Albuquerque Center
03:33AM 35.7828 -105.7650 55° Northeast 474 545 35,000  Level Albuquerque Center
03:34AM 35.8567 -105.6308 56° Northeast 473 544 35,000  Level Albuquerque Center
03:35AM 35.9367 -105.4847 56° Northeast 470 541 35,000  Level Albuquerque Center
03:36AM 36.0106 -105.3486 56° Northeast 471 542 35,000  Level Albuquerque Center
03:37AM 36.0847 -105.2128 56° Northeast 472 543 35,000  Level Albuquerque Center
03:38AM 36.1575 -105.0753 57° Northeast 472 543 35,000  Level Albuquerque Center
03:39AM 36.2322 -104.9383 56° Northeast 474 545 35,000  Level Albuquerque Center
03:40AM 36.3053 -104.8006 57° Northeast 472 543 35,000  Level Albuquerque Center
03:41AM 36.3697 -104.6544 61° Northeast 475 547 35,000  Level Albuquerque Center
03:42AM 36.4222 -104.4978 67° East 483 556 35,000  Level Albuquerque Center
03:43AM 36.4747 -104.3447 67° East 480 552 35,000  Level Albuquerque Center
03:44AM 36.5256 -104.1911 68° East 477 549 35,000  Level Albuquerque Center
03:45AM 36.5783 -104.0369 67° East 479 551 35,000  Level Albuquerque Center
03:46AM 36.6289 -103.8792 68° East 482 555 35,000  Level Albuquerque Center
03:47AM 36.6783 -103.7289 68° East 482 555 35,000  Level Albuquerque Center
03:48AM 36.7269 -103.5819 68° East 481 554 35,000  Level Albuquerque Center
03:49AM 36.7747 -103.4358 68° East 479 551 35,000  Level Albuquerque Center
03:50AM 36.8308 -103.2631 68° East 481 554 35,000  Level Albuquerque Center
03:51AM 36.8786 -103.1136 68° East 484 557 35,000  Level Albuquerque Center
03:52AM 36.9272 -102.9642 68° East 486 559 35,000  Level Albuquerque Center
03:53AM 36.9819 -102.7894 69° East 485 558 35,000  Level Albuquerque Center
03:54AM 37.0294 -102.6389 68° East 486 559 35,000  Level Albuquerque Center
03:55AM 37.0819 -102.4767 68° East 484 557 35,000  Level Albuquerque Center
03:56AM 37.1278 -102.3261 69° East 485 558 35,000  Level Albuquerque Center
03:57AM 37.1786 -102.1656 68° East 483 556 35,000  Level Albuquerque Center
03:58AM 37.2286 -102.0011 69° East 484 557 35,000  Level Albuquerque Center
03:59AM 37.2764 -101.8506 68° East 484 557 35,000  Level Albuquerque Center
04:00AM 37.3222 -101.6994 69° East 486 559 35,000  Level Albuquerque Center
04:02AM 37.3914 -101.4733 69° East 483 556 35,000  Level Kansas City Center
04:03AM 37.4444 -101.2964 69° East 484 557 35,000  Level Kansas City Center
04:04AM 37.4903 -101.1436 69° East 487 560 35,000  Level Kansas City Center
04:05AM 37.5350 -100.9881 70° East 485 558 35,000  Level Kansas City Center
04:06AM 37.5850 -100.8225 69° East 497 572 35,000  Level Kansas City Center
04:07AM 37.6342 -100.6581 69° East 501 577 35,000  Level Kansas City Center
04:08AM 37.6828 -100.4972 69° East 493 567 35,000  Level Kansas City Center
04:09AM 37.7311 -100.3283 70° East 490 564 35,000  Level Kansas City Center
04:10AM 37.7767 -100.1736 70° East 490 564 35,000  Level Kansas City Center
04:11AM 37.8283 -99.9922 70° East 492 566 35,000  Level Kansas City Center
04:12AM 37.8717 -99.8378 70° East 490 564 35,000  Level Kansas City Center
04:13AM 37.9167 -99.6836 70° East 488 562 35,000  Level Kansas City Center
04:14AM 37.9681 -99.5019 70° East 490 564 35,000  Level Kansas City Center
04:15AM 38.0064 -99.3611 71° East 490 564 35,000  Level Kansas City Center
04:16AM 38.0528 -99.1994 70° East 489 563 35,000  Level Kansas City Center
04:17AM 38.0983 -99.0361 70° East 490 564 35,000  Level Kansas City Center
04:18AM 38.1439 -98.8739 70° East 489 563 35,000  Level Kansas City Center
04:19AM 38.1908 -98.7083 70° East 493 567 35,000  Level Kansas City Center
04:20AM 38.2347 -98.5447 71° East 489 563 35,000  Level Kansas City Center
04:21AM 38.2806 -98.3808 70° East 489 563 35,000  Level Kansas City Center
04:22AM 38.3244 -98.2158 71° East 488 562 35,000  Level Kansas City Center
04:23AM 38.3700 -98.0494 71° East 493 567 35,000  Level Kansas City Center
04:24AM 38.4133 -97.8822 72° East 493 567 35,000  Level Kansas City Center
04:25AM 38.4578 -97.7164 71° East 491 565 35,000  Level Kansas City Center
04:26AM 38.5086 -97.5233 71° East 489 563 35,000  Level Kansas City Center
04:27AM 38.5536 -97.3508 72° East 492 566 35,000  Level Kansas City Center
04:28AM 38.5967 -97.1844 72° East 493 567 35,000  Level Kansas City Center
04:29AM 38.6394 -97.0175 72° East 493 567 35,000  Level Kansas City Center
04:30AM 38.6817 -96.8506 72° East 493 567 35,000  Level Kansas City Center
04:31AM 38.7225 -96.6850 72° East 489 563 35,000  Level Kansas City Center
04:32AM 38.7686 -96.5194 70° East 492 566 35,000  Level Kansas City Center
04:33AM 38.8053 -96.3628 73° East 488 562 35,000  Level Kansas City Center
04:34AM 38.8503 -96.1797 72° East 484 557 35,000  Level Kansas City Center
04:35AM 38.8886 -96.0211 73° East 485 558 35,000  Level Kansas City Center
04:36AM 38.9269 -95.8658 72° East 480 552 35,000  Level Kansas City Center
04:37AM 38.9714 -95.6825 73° East 482 555 35,000  Level Kansas City Center
04:38AM 39.0100 -95.5250 72° East 484 557 35,000  Level Kansas City Center
04:39AM 39.0508 -95.3525 73° East 485 558 35,000  Level Kansas City Center
04:40AM 39.0978 -95.1761 71° East 484 557 35,000  Level Kansas City Center
04:41AM 39.1417 -95.0361 68° East 485 558 35,000  Level Kansas City Center
04:42AM 39.1953 -94.8592 69° East 478 550 35,000  Level Kansas City Center
04:43AM 39.2436 -94.7014 68° East 490 564 35,000  Level Kansas City Center
04:44AM 39.2908 -94.5453 69° East 491 565 35,000  Level Kansas City Center
04:45AM 39.3444 -94.3642 69° East 484 557 35,000  Level Kansas City Center
04:46AM 39.3908 -94.2075 69° East 486 559 35,000  Level Kansas City Center
04:47AM 39.4372 -94.0506 69° East 487 560 35,000  Level Kansas City Center
04:48AM 39.4897 -93.8681 70° East 485 558 35,000  Level Kansas City Center
04:49AM 39.5314 -93.7236 69° East 489 563 35,000  Level Kansas City Center
04:50AM 39.5775 -93.5614 70° East 487 560 35,000  Level Kansas City Center
04:51AM 39.6328 -93.3669 70° East 485 558 35,000  Level Kansas City Center
04:52AM 39.6794 -93.2072 69° East 480 552 35,000  Level Kansas City Center
04:53AM 39.7236 -93.0439 71° East 482 555 35,000  Level Kansas City Center
04:54AM 39.7689 -92.8800 70° East 486 559 35,000  Level Kansas City Center
04:55AM 39.8142 -92.7211 70° East 481 554 35,000  Level Kansas City Center
04:56AM 39.8575 -92.5572 71° East 486 559 35,000  Level Kansas City Center
04:57AM 39.9031 -92.3947 70° East 487 560 35,000  Level Kansas City Center
04:58AM 39.9478 -92.2333 70° East 484 557 35,000  Level Kansas City Center
04:59AM 40.0008 -92.0364 71° East 487 560 35,000  Level Kansas City Center
05:00AM 40.0450 -91.8719 71° East 487 560 35,000  Level Kansas City Center
05:01AM 40.0883 -91.7081 71° East 486 559 35,000  Level Kansas City Center
05:02AM 40.1311 -91.5436 71° East 485 558 35,000  Level Kansas City Center
05:03AM 40.1747 -91.3789 71° East 485 558 35,000  Level Kansas City Center
05:04AM 40.2178 -91.2133 71° East 485 558 35,000  Level Kansas City Center
05:05AM 40.2603 -91.0486 71° East 484 557 35,000  Level Kansas City Center
05:06AM 40.3061 -90.8772 71° East 480 552 35,000  Level Kansas City Center
05:07AM 40.3408 -90.7444 71° East 482 555 35,000  Level Chicago Center
05:08AM 40.3828 -90.5792 72° East 480 552 35,000  Level Chicago Center
05:09AM 40.4250 -90.4122 72° East 482 555 35,000  Level Chicago Center
05:10AM 40.4661 -90.2461 72° East 481 554 35,000  Level Chicago Center
05:11AM 40.5056 -90.0789 73° East 482 555 35,000  Level Chicago Center
05:12AM 40.5456 -89.9114 73° East 483 556 35,000  Level Chicago Center
05:13AM 40.5858 -89.7442 72° East 485 558 35,000  Level Chicago Center
05:14AM 40.6269 -89.5794 72° East 477 549 35,000  Level Chicago Center
05:15AM 40.6658 -89.4153 73° East 486 559 35,000  Level Chicago Center
05:16AM 40.7036 -89.2458 74° East 486 559 35,000  Level Chicago Center
05:17AM 40.7419 -89.0775 73° East 486 559 35,000  Level Chicago Center
05:18AM 40.7783 -88.9078 74° East 484 557 35,000  Level Chicago Center
05:19AM 40.8169 -88.7361 73° East 483 556 35,000  Level Chicago Center
05:20AM 40.8611 -88.5364 74° East 479 551 35,000  Level Chicago Center
05:21AM 40.8983 -88.3669 74° East 483 556 35,000  Level Chicago Center
05:22AM 40.9350 -88.1956 74° East 491 565 35,000  Level Chicago Center
05:23AM 40.9717 -88.0258 74° East 487 560 35,000  Level Chicago Center
05:24AM 41.0058 -87.8558 75° East 484 557 35,000  Level Chicago Center
05:25AM 41.0425 -87.6872 74° East 483 556 35,000  Level Chicago Center
05:26AM 41.0778 -87.5192 74° East 482 555 35,000  Level Chicago Center
05:27AM 41.1131 -87.3506 74° East 480 552 35,000  Level Chicago Center
05:28AM 41.1481 -87.1811 75° East 482 555 35,000  Level Chicago Center
05:29AM 41.1831 -87.0106 75° East 484 557 35,000  Level Chicago Center
05:30AM 41.2175 -86.8394 75° East 484 557 35,000  Level Chicago Center
05:31AM 41.2544 -86.6542 75° East 486 559 35,000  Level Chicago Center
05:32AM 41.2942 -86.4817 73° East 488 562 35,000  Level Chicago Center
05:33AM 41.3342 -86.3106 73° East 487 560 35,000  Level Chicago Center
05:34AM 41.3736 -86.1386 73° East 486 559 35,000 -60 Level Chicago Center
05:35AM 41.4122 -85.9644 73° East 491 565 34,900 -1,200 Descending Chicago Center
05:36AM 41.4497 -85.7922 74° East 487 560 32,700 -2,460 Descending Chicago Center
05:37AM 41.4878 -85.6200 74° East 489 563 30,000 -2,700 Descending Chicago Center
05:38AM 41.5306 -85.4219 74° East 474 545 27,300 -2,460 Descending Chicago Center
05:39AM 41.5653 -85.2619 74° East 468 539 25,100 -2,100 Descending Chicago Center
05:40AM 41.6003 -85.1092 73° East 446 513 23,100 -1,140 Descending Chicago Center
05:41AM 41.6333 -84.9578 74° East 432 497 22,900 -780 Descending Chicago Center
05:42AM 41.6789 -84.8211 66° East 408 470 21,600 -1,440 Descending Chicago Center
05:43AM 41.7308 -84.6833 63° Northeast 415 478 20,000 -1,680 Descending Chicago Center
05:44AM 41.7817 -84.5453 64° Northeast 416 479 18,300 -1,680 Descending Chicago Center
05:45AM 41.8314 -84.4125 63° Northeast 409 471 16,900 -1,500 Descending Cleveland Center
05:46AM 41.8583 -84.3500 60° Northeast 410 472 16,200 -1,560 Descending Cleveland Center
05:47AM 41.8956 -84.2378 66° East 402 463 14,900 -1,680 Descending Cleveland Center
05:48AM 41.9411 -84.1119 64° Northeast 386 444 13,400 -1,920 Descending Cleveland Center
05:49AM 41.9842 -83.9942 64° Northeast 376 433 11,300 -1,260 Descending Cleveland Center
05:50AM 42.0292 -83.8819 62° Northeast 311 358 11,000 -180 Descending Cleveland Center
05:51AM 42.0778 -83.7864 56° Northeast 312 359 11,000  Level Cleveland Center
05:51AM 42.1219 -83.7019 55° Northeast 311 358 11,000 -540 Level Cleveland Center
05:52AM 42.1725 -83.6036 55° Northeast 305 351 10,000 -1,680 Descending Cleveland Center
05:53AM 42.2267 -83.5219 48° Northeast 290 334 7,700 -2,340 Descending Cleveland Center
05:54AM 42.2967 -83.4747 27° Northeast 277 319 5,300 -1,800 Descending Cleveland Center
05:55AM 42.3625 -83.4300 27° Northeast 238 274 4,100 -840 Descending Cleveland Center
05:56AM 42.4114 -83.3928 29° Northeast 195 224 3,800 -600 Descending Cleveland Center
05:57AM 42.3983 -83.3247 105° East 201 231 3,000 -420 Descending Cleveland Center
05:58AM 42.3533 -83.2889 150° Southeast 185 213 3,000 -300 Level Cleveland Center
05:59AM 42.3092 -83.3067 197° South 159 183 2,500 -600 Descending Cleveland Center
06:00AM 42.2731 -83.3333 209° Southwest 138 159 1,800 -720 Descending Cleveland Center